createdAt,value
2023-03-02T00:00:09.220Z,-4.76
2023-03-02T00:00:21.958Z,-4.76
2023-03-02T00:00:34.409Z,-4.76
2023-03-02T00:00:46.170Z,-4.79
2023-03-02T00:00:57.910Z,-4.79
2023-03-02T00:01:10.888Z,-4.79
2023-03-02T00:01:21.691Z,-4.79
2023-03-02T00:01:32.440Z,-4.81
2023-03-02T00:01:44.941Z,-4.79
2023-03-02T00:01:55.961Z,-4.81
2023-03-02T00:02:08.191Z,-4.81
2023-03-02T00:02:20.699Z,-4.81
2023-03-02T00:02:31.572Z,-4.81
2023-03-02T00:02:43.370Z,-4.83
2023-03-02T00:02:54.335Z,-4.81
2023-03-02T00:03:05.110Z,-4.83
2023-03-02T00:03:16.946Z,-4.83
2023-03-02T00:03:29.401Z,-4.83
2023-03-02T00:03:42.165Z,-4.84
2023-03-02T00:03:54.652Z,-4.84
2023-03-02T00:04:06.507Z,-4.84
2023-03-02T00:04:20.251Z,-4.83
2023-03-02T00:04:32.728Z,-4.85
2023-03-02T00:04:43.513Z,-4.84
2023-03-02T00:04:54.286Z,-4.84
2023-03-02T00:05:07.018Z,-4.84
2023-03-02T00:05:18.763Z,-4.84
2023-03-02T00:05:31.485Z,-4.84
2023-03-02T00:05:43.913Z,-4.84
2023-03-02T00:05:56.872Z,-4.84
2023-03-02T00:06:08.620Z,-4.84
2023-03-02T00:06:21.354Z,-4.84
2023-03-02T00:06:34.198Z,-4.84
2023-03-02T00:06:45.153Z,-4.84
2023-03-02T00:06:58.289Z,-4.85
2023-03-02T00:07:10.746Z,-4.84
2023-03-02T00:07:21.593Z,-4.85
2023-03-02T00:07:32.544Z,-4.85
2023-03-02T00:07:43.329Z,-4.87
2023-03-02T00:07:54.091Z,-4.87
2023-03-02T00:08:04.850Z,-4.87
2023-03-02T00:08:16.590Z,-4.87
2023-03-02T00:08:27.390Z,-4.87
2023-03-02T00:08:38.150Z,-4.88
2023-03-02T00:08:48.888Z,-4.87
2023-03-02T00:08:59.642Z,-4.88
2023-03-02T00:09:11.379Z,-4.87
2023-03-02T00:09:25.115Z,-4.87
2023-03-02T00:09:36.911Z,-4.88
2023-03-02T00:09:48.634Z,-4.87
2023-03-02T00:10:00.347Z,-4.87
2023-03-02T00:10:14.611Z,-4.85
2023-03-02T00:10:27.833Z,-4.87
2023-03-02T00:10:39.562Z,-4.87
2023-03-02T00:10:51.296Z,-4.85
2023-03-02T00:11:03.022Z,-4.84
2023-03-02T00:11:13.872Z,-4.85
2023-03-02T00:11:27.616Z,-4.85
2023-03-02T00:11:38.411Z,-4.84
2023-03-02T00:11:49.190Z,-4.84
2023-03-02T00:12:00.017Z,-4.84
2023-03-02T00:12:11.830Z,-4.84
2023-03-02T00:12:22.613Z,-4.85
2023-03-02T00:12:34.330Z,-4.83
2023-03-02T00:12:45.087Z,-4.84
2023-03-02T00:12:55.896Z,-4.83
2023-03-02T00:13:09.119Z,-4.84
2023-03-02T00:13:20.922Z,-4.83
2023-03-02T00:13:32.711Z,-4.81
2023-03-02T00:13:45.192Z,-4.81
2023-03-02T00:13:58.321Z,-4.79
2023-03-02T00:14:09.147Z,-4.79
2023-03-02T00:14:19.924Z,-4.76
2023-03-02T00:14:32.873Z,-4.77
2023-03-02T00:14:45.086Z,-4.76
2023-03-02T00:14:55.863Z,-4.76
2023-03-02T00:15:08.405Z,-4.76
2023-03-02T00:15:20.163Z,-4.77
2023-03-02T00:15:32.396Z,-4.76
2023-03-02T00:15:44.889Z,-4.76
2023-03-02T00:15:56.950Z,-4.76
2023-03-02T00:16:10.030Z,-4.76
2023-03-02T00:16:22.860Z,-4.76
2023-03-02T00:16:35.498Z,-4.76
2023-03-02T00:16:47.745Z,-4.74
2023-03-02T00:16:58.503Z,-4.74
2023-03-02T00:17:10.325Z,-4.74
2023-03-02T00:17:22.331Z,-4.73
2023-03-02T00:17:33.116Z,-4.73
2023-03-02T00:17:44.876Z,-4.73
2023-03-02T00:17:57.356Z,-4.72
2023-03-02T00:18:08.311Z,-4.72
2023-03-02T00:18:19.092Z,-4.73
2023-03-02T00:18:29.874Z,-4.72
2023-03-02T00:18:41.624Z,-4.72
2023-03-02T00:18:53.402Z,-4.73
2023-03-02T00:19:05.840Z,-4.73
2023-03-02T00:19:16.617Z,-4.73
2023-03-02T00:19:29.131Z,-4.72
2023-03-02T00:19:40.924Z,-4.73
2023-03-02T00:19:53.127Z,-4.73
2023-03-02T00:20:05.371Z,-4.70
2023-03-02T00:20:16.123Z,-4.70
2023-03-02T00:20:28.428Z,-4.69
2023-03-02T00:20:42.157Z,-4.69
2023-03-02T00:20:53.935Z,-4.66
2023-03-02T00:21:06.418Z,-4.67
2023-03-02T00:21:17.153Z,-4.66
2023-03-02T00:21:29.604Z,-4.66
2023-03-02T00:21:40.403Z,-4.67
2023-03-02T00:21:51.218Z,-4.67
2023-03-02T00:22:03.948Z,-4.69
2023-03-02T00:22:15.702Z,-4.67
2023-03-02T00:22:26.504Z,-4.67
2023-03-02T00:22:37.335Z,-4.67
2023-03-02T00:22:49.810Z,-4.65
2023-03-02T00:23:01.642Z,-4.66
2023-03-02T00:23:13.404Z,-4.66
2023-03-02T00:23:25.352Z,-4.65
2023-03-02T00:23:37.573Z,-4.65
2023-03-02T00:23:49.282Z,-4.63
2023-03-02T00:24:01.767Z,-4.63
2023-03-02T00:24:13.562Z,-4.63
2023-03-02T00:24:25.522Z,-4.62
2023-03-02T00:24:36.303Z,-4.62
2023-03-02T00:24:47.095Z,-4.63
2023-03-02T00:24:59.595Z,-4.63
2023-03-02T00:25:11.282Z,-4.62
2023-03-02T00:25:22.094Z,-4.63
2023-03-02T00:25:33.121Z,-4.63
2023-03-02T00:25:45.377Z,-4.65
2023-03-02T00:25:56.163Z,-4.65
2023-03-02T00:26:08.451Z,-4.65
2023-03-02T00:26:20.163Z,-4.65
2023-03-02T00:26:33.164Z,-4.65
2023-03-02T00:26:45.802Z,-4.67
2023-03-02T00:26:56.583Z,-4.69
2023-03-02T00:27:08.352Z,-4.69
2023-03-02T00:27:19.142Z,-4.69
2023-03-02T00:27:30.873Z,-4.69
2023-03-02T00:27:41.701Z,-4.69
2023-03-02T00:27:52.465Z,-4.69
2023-03-02T00:28:03.252Z,-4.70
2023-03-02T00:28:14.112Z,-4.70
2023-03-02T00:28:27.320Z,-4.70
2023-03-02T00:28:41.179Z,-4.73
2023-03-02T00:28:52.933Z,-4.74
2023-03-02T00:29:03.673Z,-4.74
2023-03-02T00:29:14.443Z,-4.73
2023-03-02T00:29:26.214Z,-4.74
2023-03-02T00:29:38.665Z,-4.76
2023-03-02T00:29:50.392Z,-4.76
2023-03-02T00:30:02.193Z,-4.76
2023-03-02T00:30:12.927Z,-4.77
2023-03-02T00:30:23.756Z,-4.77
2023-03-02T00:30:37.388Z,-4.77
2023-03-02T00:30:49.863Z,-4.79
2023-03-02T00:31:02.124Z,-4.79
2023-03-02T00:31:14.625Z,-4.79
2023-03-02T00:31:26.405Z,-4.79
2023-03-02T00:31:38.964Z,-4.81
2023-03-02T00:31:49.927Z,-4.79
2023-03-02T00:32:01.840Z,-4.79
2023-03-02T00:32:14.176Z,-4.81
2023-03-02T00:32:25.933Z,-4.77
2023-03-02T00:32:38.183Z,-4.79
2023-03-02T00:32:49.960Z,-4.81
2023-03-02T00:33:01.690Z,-4.79
2023-03-02T00:33:14.185Z,-4.79
2023-03-02T00:33:25.942Z,-4.81
2023-03-02T00:33:38.374Z,-4.83
2023-03-02T00:33:49.923Z,-4.83
2023-03-02T00:34:00.713Z,-4.81
2023-03-02T00:34:12.435Z,-4.84
2023-03-02T00:34:23.249Z,-4.84
2023-03-02T00:34:33.991Z,-4.83
2023-03-02T00:34:46.712Z,-4.84
2023-03-02T00:34:58.479Z,-4.84
2023-03-02T00:35:10.921Z,-4.85
2023-03-02T00:35:21.758Z,-4.87
2023-03-02T00:35:34.236Z,-4.87
2023-03-02T00:35:45.012Z,-4.87
2023-03-02T00:35:55.808Z,-4.88
2023-03-02T00:36:08.263Z,-4.90
2023-03-02T00:36:20.711Z,-4.88
2023-03-02T00:36:32.446Z,-4.90
2023-03-02T00:36:44.881Z,-4.90
2023-03-02T00:36:57.602Z,-4.90
2023-03-02T00:37:09.422Z,-4.91
2023-03-02T00:37:21.204Z,-4.93
2023-03-02T00:37:34.420Z,-4.94
2023-03-02T00:37:46.904Z,-4.94
2023-03-02T00:37:58.645Z,-4.94
2023-03-02T00:38:10.882Z,-4.94
2023-03-02T00:38:22.606Z,-4.97
2023-03-02T00:38:35.813Z,-4.97
2023-03-02T00:38:49.034Z,-4.99
2023-03-02T00:39:02.034Z,-4.97
2023-03-02T00:39:14.438Z,-4.99
2023-03-02T00:39:26.675Z,-4.99
2023-03-02T00:39:37.427Z,-5.01
2023-03-02T00:39:49.151Z,-5.01
2023-03-02T00:40:00.916Z,-5.01
2023-03-02T00:40:11.697Z,-5.01
2023-03-02T00:40:23.431Z,-4.99
2023-03-02T00:40:34.231Z,-4.99
2023-03-02T00:40:45.913Z,-4.99
2023-03-02T00:40:58.382Z,-4.99
2023-03-02T00:41:11.536Z,-4.99
2023-03-02T00:41:23.383Z,-4.99
2023-03-02T00:41:34.144Z,-4.95
2023-03-02T00:41:47.380Z,-4.99
2023-03-02T00:41:59.835Z,-4.95
2023-03-02T00:42:12.032Z,-4.95
2023-03-02T00:42:23.805Z,-4.95
2023-03-02T00:42:37.011Z,-4.97
2023-03-02T00:42:48.770Z,-4.97
2023-03-02T00:43:01.738Z,-4.95
2023-03-02T00:43:14.184Z,-4.97
2023-03-02T00:43:26.001Z,-4.95
2023-03-02T00:43:37.725Z,-4.97
2023-03-02T00:43:49.484Z,-4.97
2023-03-02T00:44:01.944Z,-4.97
2023-03-02T00:44:14.410Z,-4.99
2023-03-02T00:44:25.245Z,-4.97
2023-03-02T00:44:36.066Z,-4.95
2023-03-02T00:44:46.892Z,-4.97
2023-03-02T00:44:57.675Z,-4.97
2023-03-02T00:45:09.382Z,-4.99
2023-03-02T00:45:21.113Z,-4.97
2023-03-02T00:45:33.623Z,-4.99
2023-03-02T00:45:44.414Z,-4.99
2023-03-02T00:45:56.135Z,-5.01
2023-03-02T00:46:06.919Z,-5.01
2023-03-02T00:46:17.796Z,-4.99
2023-03-02T00:46:31.410Z,-4.99
2023-03-02T00:46:43.403Z,-4.97
2023-03-02T00:46:55.185Z,-4.97
2023-03-02T00:47:06.128Z,-4.97
2023-03-02T00:47:20.862Z,-4.95
2023-03-02T00:47:34.606Z,-4.97
2023-03-02T00:47:46.314Z,-4.95
2023-03-02T00:47:58.073Z,-4.97
2023-03-02T00:48:09.843Z,-4.95
2023-03-02T00:48:22.312Z,-4.94
2023-03-02T00:48:34.523Z,-4.94
2023-03-02T00:48:46.280Z,-4.94
2023-03-02T00:48:57.976Z,-4.94
2023-03-02T00:49:10.404Z,-4.94
2023-03-02T00:49:21.241Z,-4.94
2023-03-02T00:49:32.962Z,-4.93
2023-03-02T00:49:45.455Z,-4.94
2023-03-02T00:49:57.933Z,-4.94
2023-03-02T00:50:10.197Z,-4.94
2023-03-02T00:50:21.996Z,-4.94
2023-03-02T00:50:32.752Z,-4.94
2023-03-02T00:50:43.529Z,-4.94
2023-03-02T00:50:54.296Z,-4.94
2023-03-02T00:51:05.082Z,-4.93
2023-03-02T00:51:15.870Z,-4.93
2023-03-02T00:51:27.892Z,-4.94
2023-03-02T00:51:40.364Z,-4.94
2023-03-02T00:51:53.588Z,-4.95
2023-03-02T00:52:05.322Z,-4.94
2023-03-02T00:52:16.104Z,-4.91
2023-03-02T00:52:28.552Z,-4.94
2023-03-02T00:52:40.299Z,-4.94
2023-03-02T00:52:52.539Z,-4.94
2023-03-02T00:53:05.667Z,-4.94
2023-03-02T00:53:18.447Z,-4.95
2023-03-02T00:53:29.416Z,-4.95
2023-03-02T00:53:40.245Z,-4.95
2023-03-02T00:53:51.030Z,-4.95
2023-03-02T00:54:02.823Z,-4.95
2023-03-02T00:54:13.663Z,-4.95
2023-03-02T00:54:25.404Z,-4.95
2023-03-02T00:54:37.150Z,-4.95
2023-03-02T00:54:50.515Z,-4.97
2023-03-02T00:55:01.473Z,-4.95
2023-03-02T00:55:12.254Z,-4.99
2023-03-02T00:55:23.520Z,-4.97
2023-03-02T00:55:36.504Z,-4.97
2023-03-02T00:55:49.486Z,-4.97
2023-03-02T00:56:04.757Z,-4.97
2023-03-02T00:56:15.484Z,-4.97
2023-03-02T00:57:05.715Z,0.00
2023-03-02T00:57:16.534Z,-5.02
2023-03-02T00:57:30.021Z,-5.02
2023-03-02T00:57:41.882Z,-5.03
2023-03-02T00:57:55.322Z,-5.02
2023-03-02T00:58:07.358Z,-5.05
2023-03-02T00:58:18.129Z,-5.05
2023-03-02T00:58:30.606Z,-5.05
2023-03-02T00:58:42.869Z,-5.05
2023-03-02T00:58:53.624Z,-5.03
2023-03-02T00:59:06.060Z,-5.06
2023-03-02T00:59:17.785Z,-5.06
2023-03-02T00:59:31.257Z,-5.05
2023-03-02T00:59:41.992Z,-5.06
2023-03-02T00:59:53.774Z,-5.06
2023-03-02T01:00:05.526Z,-5.06
2023-03-02T01:00:16.293Z,-5.08
2023-03-02T01:00:29.503Z,-5.08
2023-03-02T01:00:41.434Z,-5.08
2023-03-02T01:00:53.218Z,-5.08
2023-03-02T01:01:06.428Z,-5.09
2023-03-02T01:01:18.739Z,-5.11
2023-03-02T01:01:30.724Z,-5.11
2023-03-02T01:01:42.467Z,-5.11
2023-03-02T01:01:54.764Z,-5.11
2023-03-02T01:02:06.946Z,-5.12
2023-03-02T01:02:17.788Z,-5.12
2023-03-02T01:02:28.983Z,-5.12
2023-03-02T01:02:42.828Z,-5.13
2023-03-02T01:02:55.399Z,-5.16
2023-03-02T01:03:07.221Z,-5.13
2023-03-02T01:03:18.058Z,-5.13
2023-03-02T01:03:29.818Z,-5.13
2023-03-02T01:03:42.764Z,-5.16
2023-03-02T01:03:54.588Z,-5.16
2023-03-02T01:04:05.365Z,-5.16
2023-03-02T01:04:16.186Z,-5.16
2023-03-02T01:04:27.959Z,-5.16
2023-03-02T01:04:39.700Z,-5.16
2023-03-02T01:04:51.427Z,-5.16
2023-03-02T01:05:03.966Z,-5.17
2023-03-02T01:05:15.699Z,-5.17
2023-03-02T01:05:28.205Z,-5.20
2023-03-02T01:05:40.698Z,-5.17
2023-03-02T01:05:51.497Z,-5.20
2023-03-02T01:06:04.086Z,-5.20
2023-03-02T01:06:14.918Z,-5.20
2023-03-02T01:06:26.663Z,-5.21
2023-03-02T01:06:37.479Z,-5.21
2023-03-02T01:06:49.736Z,-5.20
2023-03-02T01:07:00.519Z,-5.17
2023-03-02T01:07:11.380Z,-5.17
2023-03-02T01:07:22.163Z,-5.17
2023-03-02T01:07:32.930Z,-5.17
2023-03-02T01:07:44.727Z,-5.17
2023-03-02T01:07:55.485Z,-5.16
2023-03-02T01:08:06.241Z,-5.16
2023-03-02T01:08:17.072Z,-5.16
2023-03-02T01:08:29.549Z,-5.16
2023-03-02T01:08:40.370Z,-5.17
2023-03-02T01:08:52.098Z,-5.16
2023-03-02T01:09:02.938Z,-5.16
2023-03-02T01:09:13.730Z,-5.17
2023-03-02T01:09:26.459Z,-5.17
2023-03-02T01:09:38.221Z,-5.17
2023-03-02T01:09:49.000Z,-5.17
2023-03-02T01:09:59.785Z,-5.17
2023-03-02T01:10:10.560Z,-5.16
2023-03-02T01:10:21.371Z,-5.16
2023-03-02T01:10:33.108Z,-5.16
2023-03-02T01:10:43.890Z,-5.17
2023-03-02T01:10:56.130Z,-5.17
2023-03-02T01:11:07.883Z,-5.17
2023-03-02T01:11:18.720Z,-5.17
2023-03-02T01:11:30.499Z,-5.20
2023-03-02T01:11:42.260Z,-5.17
2023-03-02T01:11:53.052Z,-5.17
2023-03-02T01:12:03.854Z,-5.17
2023-03-02T01:12:15.609Z,-5.20
2023-03-02T01:12:28.072Z,-5.20
2023-03-02T01:12:38.889Z,-5.20
2023-03-02T01:12:49.665Z,-5.17
2023-03-02T01:13:01.440Z,-5.20
2023-03-02T01:13:13.896Z,-5.17
2023-03-02T01:13:24.675Z,-5.17
2023-03-02T01:13:36.457Z,-5.17
2023-03-02T01:13:47.270Z,-5.17
2023-03-02T01:13:58.013Z,-5.17
2023-03-02T01:14:08.863Z,-5.17
2023-03-02T01:14:20.612Z,-5.16
2023-03-02T01:14:31.416Z,-5.16
2023-03-02T01:14:42.175Z,-5.16
2023-03-02T01:14:53.942Z,-5.16
2023-03-02T01:15:05.956Z,-5.13
2023-03-02T01:15:16.789Z,-5.16
2023-03-02T01:15:27.591Z,-5.16
2023-03-02T01:15:38.388Z,-5.13
2023-03-02T01:15:49.248Z,-5.13
2023-03-02T01:16:01.003Z,-5.16
2023-03-02T01:16:11.894Z,-5.13
2023-03-02T01:16:24.332Z,-5.16
2023-03-02T01:16:36.187Z,-5.16
2023-03-02T01:16:46.980Z,-5.16
2023-03-02T01:16:57.766Z,-5.16
2023-03-02T01:17:08.684Z,-5.16
2023-03-02T01:17:19.505Z,-5.17
2023-03-02T01:17:30.291Z,-5.20
2023-03-02T01:17:42.040Z,-5.20
2023-03-02T01:17:52.825Z,-5.20
2023-03-02T01:18:03.684Z,-5.21
2023-03-02T01:18:14.531Z,-5.21
2023-03-02T01:18:25.336Z,-5.21
2023-03-02T01:18:37.124Z,-5.23
2023-03-02T01:18:48.903Z,-5.23
2023-03-02T01:18:59.700Z,-5.23
2023-03-02T01:19:10.493Z,-5.23
2023-03-02T01:19:22.988Z,-5.23
2023-03-02T01:19:34.910Z,-5.24
2023-03-02T01:19:46.646Z,-5.24
2023-03-02T01:19:59.391Z,-5.23
2023-03-02T01:20:10.177Z,-5.21
2023-03-02T01:20:21.011Z,-5.24
2023-03-02T01:20:31.833Z,-5.24
2023-03-02T01:20:42.608Z,-5.23
2023-03-02T01:20:54.345Z,-5.23
2023-03-02T01:21:05.153Z,-5.23
2023-03-02T01:21:17.666Z,-5.23
2023-03-02T01:21:28.417Z,-5.23
2023-03-02T01:21:39.244Z,-5.25
2023-03-02T01:21:50.022Z,-5.24
2023-03-02T01:22:01.763Z,-5.24
2023-03-02T01:22:14.287Z,-5.23
2023-03-02T01:22:25.057Z,-5.25
2023-03-02T01:22:36.790Z,-5.23
2023-03-02T01:22:48.535Z,-5.25
2023-03-02T01:22:59.314Z,-5.27
2023-03-02T01:23:10.076Z,-5.27
2023-03-02T01:23:22.593Z,-5.27
2023-03-02T01:23:33.423Z,-5.28
2023-03-02T01:23:45.933Z,-5.27
2023-03-02T01:23:56.702Z,-5.28
2023-03-02T01:24:07.465Z,-5.28
2023-03-02T01:24:20.005Z,-5.28
2023-03-02T01:24:30.783Z,-5.30
2023-03-02T01:24:43.757Z,-5.30
2023-03-02T01:24:56.504Z,-5.30
2023-03-02T01:25:07.254Z,-5.30
2023-03-02T01:25:18.071Z,-5.30
2023-03-02T01:25:28.922Z,-5.30
2023-03-02T01:25:40.722Z,-5.30
2023-03-02T01:25:51.554Z,-5.31
2023-03-02T01:26:03.806Z,-5.30
2023-03-02T01:26:16.533Z,-5.31
2023-03-02T01:26:29.952Z,-5.30
2023-03-02T01:26:43.254Z,-5.31
2023-03-02T01:26:54.049Z,-5.33
2023-03-02T01:27:07.782Z,-5.31
2023-03-02T01:27:19.515Z,-5.31
2023-03-02T01:27:30.274Z,-5.33
2023-03-02T01:27:42.770Z,-5.33
2023-03-02T01:27:55.000Z,-5.33
2023-03-02T01:28:05.746Z,-5.34
2023-03-02T01:28:16.526Z,-5.33
2023-03-02T01:28:29.261Z,-5.34
2023-03-02T01:28:41.489Z,-5.33
2023-03-02T01:28:54.695Z,-5.34
2023-03-02T01:29:07.920Z,-5.34
2023-03-02T01:29:18.721Z,-5.35
2023-03-02T01:29:30.433Z,-5.35
2023-03-02T01:29:42.713Z,-5.34
2023-03-02T01:29:53.480Z,-5.35
2023-03-02T01:30:05.755Z,-5.35
2023-03-02T01:30:16.529Z,-5.34
2023-03-02T01:30:29.011Z,-5.35
2023-03-02T01:30:39.765Z,-5.34
2023-03-02T01:30:51.727Z,-5.34
2023-03-02T01:31:04.900Z,-5.33
2023-03-02T01:31:16.706Z,-5.31
2023-03-02T01:31:27.478Z,-5.28
2023-03-02T01:31:39.223Z,-5.27
2023-03-02T01:31:51.140Z,-5.24
2023-03-02T01:32:02.206Z,-5.25
2023-03-02T01:32:14.764Z,-5.23
2023-03-02T01:32:25.627Z,-5.23
2023-03-02T01:32:36.516Z,-5.21
2023-03-02T01:32:47.309Z,-5.20
2023-03-02T01:32:59.762Z,-5.20
2023-03-02T01:33:12.201Z,-5.17
2023-03-02T01:33:23.046Z,-5.16
2023-03-02T01:33:33.834Z,-5.13
2023-03-02T01:33:44.635Z,-5.13
2023-03-02T01:33:55.436Z,-5.12
2023-03-02T01:34:07.916Z,-5.13
2023-03-02T01:34:19.656Z,-5.12
2023-03-02T01:34:30.446Z,-5.12
2023-03-02T01:34:41.215Z,-5.12
2023-03-02T01:34:53.738Z,-5.12
2023-03-02T01:35:04.517Z,-5.12
2023-03-02T01:35:17.047Z,-5.12
2023-03-02T01:35:29.547Z,-5.13
2023-03-02T01:35:40.354Z,-5.13
2023-03-02T01:35:53.100Z,-5.16
2023-03-02T01:36:04.880Z,-5.16
2023-03-02T01:36:17.317Z,-5.16
2023-03-02T01:36:28.066Z,-5.17
2023-03-02T01:36:40.517Z,-5.17
2023-03-02T01:36:52.759Z,-5.17
2023-03-02T01:37:04.558Z,-5.20
2023-03-02T01:37:15.387Z,-5.17
2023-03-02T01:37:26.183Z,-5.20
2023-03-02T01:37:38.400Z,-5.17
2023-03-02T01:37:50.161Z,-5.21
2023-03-02T01:38:00.934Z,-5.21
2023-03-02T01:38:11.917Z,-5.21
2023-03-02T01:38:22.826Z,-5.21
2023-03-02T01:38:33.672Z,-5.21
2023-03-02T01:38:45.452Z,-5.23
2023-03-02T01:38:56.305Z,-5.21
2023-03-02T01:39:07.087Z,-5.23
2023-03-02T01:39:17.868Z,-5.23
2023-03-02T01:39:28.680Z,-5.23
2023-03-02T01:39:40.944Z,-5.21
2023-03-02T01:39:52.666Z,-5.23
2023-03-02T01:40:04.897Z,-5.21
2023-03-02T01:40:15.708Z,-5.23
2023-03-02T01:40:26.542Z,-5.21
2023-03-02T01:40:37.335Z,-5.23
2023-03-02T01:40:49.068Z,-5.24
2023-03-02T01:41:00.849Z,-5.24
2023-03-02T01:41:11.642Z,-5.24
2023-03-02T01:41:23.449Z,-5.25
2023-03-02T01:41:34.213Z,-5.24
2023-03-02T01:41:44.977Z,-5.24
2023-03-02T01:41:55.738Z,-5.25
2023-03-02T01:42:06.582Z,-5.25
2023-03-02T01:42:17.393Z,-5.27
2023-03-02T01:42:29.224Z,-5.27
2023-03-02T01:42:42.189Z,-5.28
2023-03-02T01:42:54.667Z,-5.28
2023-03-02T01:43:05.458Z,-5.30
2023-03-02T01:43:18.618Z,-5.30
2023-03-02T01:43:31.085Z,-5.30
2023-03-02T01:43:43.600Z,-5.30
2023-03-02T01:43:55.343Z,-5.31
2023-03-02T01:44:06.177Z,-5.33
2023-03-02T01:44:16.967Z,-5.33
2023-03-02T01:44:29.417Z,-5.33
2023-03-02T01:44:41.216Z,-5.34
2023-03-02T01:44:52.994Z,-5.35
2023-03-02T01:45:03.776Z,-5.35
2023-03-02T01:45:14.523Z,-5.38
2023-03-02T01:45:27.067Z,-5.38
2023-03-02T01:45:37.877Z,-5.39
2023-03-02T01:45:50.879Z,-5.39
2023-03-02T01:46:03.297Z,-5.41
2023-03-02T01:46:15.122Z,-5.42
2023-03-02T01:46:27.727Z,-5.41
2023-03-02T01:46:40.458Z,-5.42
2023-03-02T01:46:52.184Z,-5.43
2023-03-02T01:47:06.434Z,-5.43
2023-03-02T01:47:18.645Z,-5.45
2023-03-02T01:47:31.560Z,-5.45
2023-03-02T01:47:44.006Z,-5.45
2023-03-02T01:47:57.246Z,-5.46
2023-03-02T01:48:11.010Z,-5.45
2023-03-02T01:48:23.772Z,-5.46
2023-03-02T01:48:34.563Z,-5.48
2023-03-02T01:48:46.302Z,-5.48
2023-03-02T01:48:58.800Z,-5.48
2023-03-02T01:49:10.526Z,-5.46
2023-03-02T01:49:22.990Z,-5.46
2023-03-02T01:49:34.720Z,-5.45
2023-03-02T01:49:45.558Z,-5.46
2023-03-02T01:49:59.285Z,-5.46
2023-03-02T01:50:11.767Z,-5.46
2023-03-02T01:50:23.465Z,-5.45
2023-03-02T01:50:35.948Z,-5.46
2023-03-02T01:50:48.399Z,-5.46
2023-03-02T01:51:01.420Z,-5.45
2023-03-02T01:51:12.246Z,-5.45
2023-03-02T01:51:24.484Z,-5.46
2023-03-02T01:51:36.935Z,-5.45
2023-03-02T01:51:47.746Z,-5.45
2023-03-02T01:51:58.546Z,-5.48
2023-03-02T01:52:10.277Z,-5.46
2023-03-02T01:52:22.026Z,-5.46
2023-03-02T01:52:32.798Z,-5.46
2023-03-02T01:52:43.545Z,-5.46
2023-03-02T01:52:54.361Z,-5.46
2023-03-02T01:53:06.080Z,-5.46
2023-03-02T01:53:16.948Z,-5.48
2023-03-02T01:53:30.175Z,-5.49
2023-03-02T01:53:41.870Z,-5.49
2023-03-02T01:53:55.494Z,-5.49
2023-03-02T01:54:06.427Z,-5.48
2023-03-02T01:54:17.243Z,-5.51
2023-03-02T01:54:29.835Z,-5.49
2023-03-02T01:54:40.663Z,-5.51
2023-03-02T01:54:51.538Z,-5.49
2023-03-02T01:55:03.978Z,-5.51
2023-03-02T01:55:14.778Z,-5.51
2023-03-02T01:55:26.545Z,-5.52
2023-03-02T01:55:37.367Z,-5.52
2023-03-02T01:55:48.132Z,-5.53
2023-03-02T01:55:59.958Z,-5.55
2023-03-02T01:56:12.460Z,-5.55
2023-03-02T01:56:25.735Z,-5.53
2023-03-02T01:56:37.491Z,-5.55
2023-03-02T01:56:49.247Z,-5.55
2023-03-02T01:57:01.499Z,-5.55
2023-03-02T01:57:13.274Z,-5.55
2023-03-02T01:57:25.038Z,-5.59
2023-03-02T01:57:36.814Z,-5.57
2023-03-02T01:57:47.583Z,-5.57
2023-03-02T01:57:59.365Z,-5.59
2023-03-02T01:58:11.076Z,-5.59
2023-03-02T01:58:23.056Z,-5.59
2023-03-02T01:58:33.876Z,-5.60
2023-03-02T01:58:45.681Z,-5.60
2023-03-02T01:58:56.492Z,-5.59
2023-03-02T01:59:07.294Z,-5.57
2023-03-02T01:59:18.065Z,-5.57
2023-03-02T01:59:30.535Z,-5.59
2023-03-02T01:59:42.321Z,-5.59
2023-03-02T01:59:53.125Z,-5.59
2023-03-02T02:00:04.856Z,-5.59
2023-03-02T02:00:15.639Z,-5.59
2023-03-02T02:00:27.382Z,-5.59
2023-03-02T02:00:38.245Z,-5.59
2023-03-02T02:00:49.140Z,-5.59
2023-03-02T02:01:00.937Z,-5.57
2023-03-02T02:01:12.757Z,-5.57
2023-03-02T02:01:24.651Z,-5.57
2023-03-02T02:01:35.468Z,-5.55
2023-03-02T02:01:47.187Z,-5.55
2023-03-02T02:01:57.956Z,-5.53
2023-03-02T02:02:08.708Z,-5.53
2023-03-02T02:02:19.458Z,-5.55
2023-03-02T02:02:30.199Z,-5.53
2023-03-02T02:02:41.000Z,-5.57
2023-03-02T02:02:51.786Z,-5.53
2023-03-02T02:03:04.239Z,-5.53
2023-03-02T02:03:15.073Z,-5.57
2023-03-02T02:03:25.881Z,-5.59
2023-03-02T02:03:36.691Z,-5.57
2023-03-02T02:03:47.487Z,-5.57
2023-03-02T02:03:59.963Z,-5.55
2023-03-02T02:04:10.887Z,-5.59
2023-03-02T02:04:21.732Z,-5.60
2023-03-02T02:04:32.557Z,-5.60
2023-03-02T02:04:43.334Z,-5.60
2023-03-02T02:04:55.054Z,-5.60
2023-03-02T02:05:05.857Z,-5.60
2023-03-02T02:05:16.706Z,-5.62
2023-03-02T02:05:29.166Z,-5.60
2023-03-02T02:05:40.912Z,-5.60
2023-03-02T02:05:51.728Z,-5.59
2023-03-02T02:06:02.556Z,-5.59
2023-03-02T02:06:13.380Z,-5.59
2023-03-02T02:06:24.174Z,-5.59
2023-03-02T02:06:37.319Z,-5.57
2023-03-02T02:06:50.061Z,-5.59
2023-03-02T02:07:00.903Z,-5.59
2023-03-02T02:07:11.687Z,-5.57
2023-03-02T02:07:24.150Z,-5.55
2023-03-02T02:07:36.886Z,-5.57
2023-03-02T02:07:48.677Z,-5.57
2023-03-02T02:08:00.422Z,-5.55
2023-03-02T02:08:11.221Z,-5.55
2023-03-02T02:08:22.940Z,-5.55
2023-03-02T02:08:36.167Z,-5.55
2023-03-02T02:08:49.449Z,-5.57
2023-03-02T02:09:01.690Z,-5.55
2023-03-02T02:09:15.997Z,-5.57
2023-03-02T02:09:27.745Z,-5.59
2023-03-02T02:09:38.528Z,-5.57
2023-03-02T02:09:51.525Z,-5.59
2023-03-02T02:10:03.280Z,-5.57
2023-03-02T02:10:14.081Z,-5.59
2023-03-02T02:10:25.793Z,-5.57
2023-03-02T02:10:38.248Z,-5.57
2023-03-02T02:10:50.957Z,-5.59
2023-03-02T02:11:03.427Z,-5.59
2023-03-02T02:11:15.447Z,-5.59
2023-03-02T02:11:27.877Z,-5.60
2023-03-02T02:11:39.577Z,-5.59
2023-03-02T02:11:50.411Z,-5.60
2023-03-02T02:12:03.170Z,-5.59
2023-03-02T02:12:13.908Z,-5.59
2023-03-02T02:12:26.407Z,-5.60
2023-03-02T02:12:37.935Z,-5.60
2023-03-02T02:12:50.412Z,-5.60
2023-03-02T02:13:02.935Z,-5.59
2023-03-02T02:13:14.657Z,-5.60
2023-03-02T02:13:27.122Z,-5.60
2023-03-02T02:13:38.816Z,-5.62
2023-03-02T02:13:51.311Z,-5.60
2023-03-02T02:14:03.782Z,-5.60
2023-03-02T02:14:15.548Z,-5.62
2023-03-02T02:14:27.375Z,-5.59
2023-03-02T02:14:38.204Z,-5.60
2023-03-02T02:14:50.708Z,-5.60
2023-03-02T02:15:03.178Z,-5.60
2023-03-02T02:15:13.982Z,-5.60
2023-03-02T02:15:26.689Z,-5.60
2023-03-02T02:15:37.516Z,-5.62
2023-03-02T02:15:49.728Z,-5.60
2023-03-02T02:16:01.515Z,-5.60
2023-03-02T02:16:14.319Z,-5.60
2023-03-02T02:16:25.154Z,-5.60
2023-03-02T02:16:36.948Z,-5.62
2023-03-02T02:16:48.713Z,-5.60
2023-03-02T02:17:00.574Z,-5.62
2023-03-02T02:17:13.546Z,-5.63
2023-03-02T02:17:26.064Z,-5.62
2023-03-02T02:17:37.797Z,-5.63
2023-03-02T02:17:49.533Z,-5.62
2023-03-02T02:18:01.279Z,-5.63
2023-03-02T02:18:13.507Z,-5.63
2023-03-02T02:18:26.756Z,-5.63
2023-03-02T02:18:38.486Z,-5.64
2023-03-02T02:18:49.309Z,-5.63
2023-03-02T02:19:00.136Z,-5.62
2023-03-02T02:19:11.886Z,-5.64
2023-03-02T02:19:22.686Z,-5.63
2023-03-02T02:19:34.910Z,-5.63
2023-03-02T02:19:46.698Z,-5.64
2023-03-02T02:19:58.469Z,-5.63
2023-03-02T02:20:10.730Z,-5.64
2023-03-02T02:20:22.535Z,-5.64
2023-03-02T02:20:34.777Z,-5.64
2023-03-02T02:20:45.631Z,-5.64
2023-03-02T02:20:56.468Z,-5.63
2023-03-02T02:21:07.287Z,-5.64
2023-03-02T02:21:18.109Z,-5.64
2023-03-02T02:21:28.886Z,-5.63
2023-03-02T02:21:41.142Z,-5.63
2023-03-02T02:21:51.912Z,-5.66
2023-03-02T02:22:03.705Z,-5.64
2023-03-02T02:22:14.490Z,-5.63
2023-03-02T02:22:26.271Z,-5.64
2023-03-02T02:22:37.090Z,-5.64
2023-03-02T02:22:48.869Z,-5.66
2023-03-02T02:22:59.679Z,-5.64
2023-03-02T02:23:11.437Z,-5.66
2023-03-02T02:23:23.146Z,-5.66
2023-03-02T02:23:35.419Z,-5.67
2023-03-02T02:23:46.220Z,-5.67
2023-03-02T02:23:56.989Z,-5.66
2023-03-02T02:24:07.825Z,-5.67
2023-03-02T02:24:18.569Z,-5.67
2023-03-02T02:24:29.337Z,-5.67
2023-03-02T02:24:40.133Z,-5.69
2023-03-02T02:24:53.370Z,-5.70
2023-03-02T02:25:05.649Z,-5.69
2023-03-02T02:25:17.920Z,-5.70
2023-03-02T02:25:28.695Z,-5.69
2023-03-02T02:25:41.171Z,-5.69
2023-03-02T02:25:51.948Z,-5.69
2023-03-02T02:26:02.733Z,-5.70
2023-03-02T02:26:14.489Z,-5.69
2023-03-02T02:26:26.247Z,-5.70
2023-03-02T02:26:37.006Z,-5.70
2023-03-02T02:26:49.478Z,-5.71
2023-03-02T02:27:01.226Z,-5.71
2023-03-02T02:27:14.220Z,-5.71
2023-03-02T02:27:26.014Z,-5.71
2023-03-02T02:27:36.792Z,-5.73
2023-03-02T02:27:49.259Z,-5.73
2023-03-02T02:28:01.057Z,-5.73
2023-03-02T02:28:12.788Z,-5.75
2023-03-02T02:28:25.063Z,-5.75
2023-03-02T02:28:35.864Z,-5.75
2023-03-02T02:28:47.906Z,-5.77
2023-03-02T02:29:00.357Z,-5.77
2023-03-02T02:29:12.104Z,-5.77
2023-03-02T02:29:24.328Z,-5.77
2023-03-02T02:29:36.298Z,-5.78
2023-03-02T02:29:48.048Z,-5.80
2023-03-02T02:30:00.487Z,-5.78
2023-03-02T02:30:11.250Z,-5.81
2023-03-02T02:30:23.040Z,-5.80
2023-03-02T02:30:35.748Z,-5.82
2023-03-02T02:30:48.728Z,-5.82
2023-03-02T02:31:01.693Z,-5.84
2023-03-02T02:31:14.241Z,-5.82
2023-03-02T02:31:26.938Z,-5.84
2023-03-02T02:31:37.793Z,-5.87